createdAt,value
2022-10-11T00:00:36.626Z,37.80
2022-10-11T00:03:04.213Z,37.35
2022-10-11T00:05:31.532Z,38.42
2022-10-11T00:07:58.580Z,36.95
2022-10-11T00:10:25.327Z,36.83
2022-10-11T00:12:54.949Z,36.75
2022-10-11T00:17:48.540Z,33.33
2022-10-11T00:20:15.292Z,34.67
2022-10-11T00:22:42.445Z,33.60
2022-10-11T00:25:10.800Z,34.08
2022-10-11T00:27:37.605Z,34.28
2022-10-11T00:30:06.268Z,32.67
2022-10-11T00:32:34.237Z,31.77
2022-10-11T00:35:04.793Z,31.92
2022-10-11T00:37:32.976Z,30.75
2022-10-11T00:39:59.757Z,30.77
2022-10-11T00:42:26.853Z,29.48
2022-10-11T00:45:31.797Z,30.85
2022-10-11T00:48:03.148Z,31.42
2022-10-11T00:50:32.251Z,28.67
2022-10-11T00:53:02.175Z,29.70
2022-10-11T00:55:35.558Z,28.75
2022-10-11T00:58:02.268Z,29.00
2022-10-11T01:00:29.087Z,27.73
2022-10-11T01:02:55.880Z,28.10
2022-10-11T01:05:29.646Z,27.42
2022-10-11T01:07:59.107Z,27.00
2022-10-11T01:10:26.973Z,27.25
2022-10-11T01:13:05.203Z,27.02
2022-10-11T01:15:53.826Z,26.55
2022-10-11T01:18:33.604Z,26.10
2022-10-11T01:21:25.213Z,25.65
2022-10-11T01:24:09.001Z,25.95
2022-10-11T01:26:54.558Z,25.73
2022-10-11T01:29:53.679Z,24.00
2022-10-11T01:32:30.169Z,23.77
2022-10-11T01:35:15.035Z,24.48
2022-10-11T01:37:45.056Z,23.67
2022-10-11T01:40:19.176Z,24.27
2022-10-11T01:42:46.068Z,22.42
2022-10-11T01:45:17.838Z,22.85
2022-10-11T01:47:45.903Z,21.60
2022-10-11T01:50:36.601Z,23.10
2022-10-11T01:53:41.898Z,21.45
2022-10-11T01:56:22.902Z,21.50
2022-10-11T02:02:13.576Z,21.25
2022-10-11T02:04:58.695Z,21.90
2022-10-11T02:07:54.340Z,19.88
2022-10-11T02:10:43.088Z,19.42
2022-10-11T02:13:16.642Z,19.87
2022-10-11T02:15:44.049Z,20.13
2022-10-11T02:18:16.026Z,18.88
2022-10-11T02:20:44.130Z,19.10
2022-10-11T02:23:42.075Z,19.40
2022-10-11T02:26:09.320Z,18.52
2022-10-11T02:28:38.163Z,19.25
2022-10-11T02:31:06.649Z,17.83
2022-10-11T02:33:40.762Z,18.77
2022-10-11T02:36:13.248Z,17.50
2022-10-11T02:44:08.109Z,16.90
2022-10-11T02:46:35.273Z,17.10
2022-10-11T02:49:02.426Z,16.75
2022-10-11T02:51:32.911Z,16.52
2022-10-11T02:53:59.962Z,16.55
2022-10-11T02:56:26.700Z,16.95
2022-10-11T02:58:53.449Z,15.88
2022-10-11T03:01:20.212Z,15.93
2022-10-11T03:03:47.198Z,16.33
2022-10-11T03:06:14.052Z,16.08
2022-10-11T03:08:40.859Z,15.63
2022-10-11T03:11:07.656Z,16.00
2022-10-11T03:13:34.373Z,15.15
2022-10-11T03:16:03.626Z,14.07
2022-10-11T03:18:31.053Z,15.00
2022-10-11T03:20:57.845Z,14.90
2022-10-11T03:23:24.573Z,14.88
2022-10-11T03:25:52.025Z,14.68
2022-10-11T03:28:19.616Z,13.88
2022-10-11T03:30:50.357Z,13.88
2022-10-11T03:33:17.744Z,14.63
2022-10-11T03:35:46.151Z,14.07
2022-10-11T03:38:22.055Z,13.50
2022-10-11T03:40:49.049Z,13.27
2022-10-11T03:43:16.145Z,13.88
2022-10-11T03:45:42.908Z,13.68
2022-10-11T03:48:10.300Z,13.43
2022-10-11T03:50:37.348Z,13.55
2022-10-11T03:53:05.719Z,12.75
2022-10-11T03:55:32.521Z,12.38
2022-10-11T03:57:59.259Z,13.10
2022-10-11T04:00:26.036Z,13.32
2022-10-11T04:02:52.749Z,12.23
2022-10-11T04:05:19.509Z,11.32
2022-10-11T04:07:46.200Z,11.93
2022-10-11T04:10:12.971Z,12.30
2022-10-11T04:12:39.741Z,11.40
2022-10-11T04:15:07.283Z,11.45
2022-10-11T04:17:34.101Z,11.38
2022-10-11T04:20:00.782Z,10.38
2022-10-11T04:22:27.565Z,11.10
2022-10-11T04:24:54.352Z,11.68
2022-10-11T04:27:21.335Z,9.65
2022-10-11T04:29:48.038Z,10.48
2022-10-11T04:32:14.772Z,11.35
2022-10-11T04:34:41.545Z,10.55
2022-10-11T04:37:08.310Z,10.35
2022-10-11T04:39:35.029Z,9.63
2022-10-11T04:42:01.741Z,10.25
2022-10-11T04:44:28.468Z,9.65
2022-10-11T04:46:55.324Z,10.02
2022-10-11T04:49:22.177Z,9.27
2022-10-11T04:51:49.112Z,9.00
2022-10-11T04:54:15.975Z,9.50
2022-10-11T04:56:42.773Z,9.07
2022-10-11T04:59:09.593Z,9.38
2022-10-11T05:01:36.502Z,9.50
2022-10-11T05:04:03.598Z,9.20
2022-10-11T05:06:30.387Z,9.25
2022-10-11T05:08:57.084Z,8.20
2022-10-11T05:11:23.800Z,8.65
2022-10-11T05:13:50.505Z,8.50
2022-10-11T05:16:17.903Z,8.75
2022-10-11T05:18:44.979Z,7.90
2022-10-11T05:21:19.836Z,8.13
2022-10-11T05:23:47.651Z,8.57
2022-10-11T05:26:15.696Z,8.18
2022-10-11T05:28:42.784Z,8.13
2022-10-11T05:31:10.064Z,8.27
2022-10-11T05:33:36.935Z,7.78
2022-10-11T05:36:04.491Z,7.90
2022-10-11T05:38:31.473Z,7.85
2022-10-11T05:41:02.497Z,46.45
2022-10-11T05:43:29.828Z,62.42
2022-10-11T05:45:56.635Z,52.55
2022-10-11T05:48:24.132Z,48.42
2022-10-11T05:51:10.425Z,46.80
2022-10-11T05:53:55.933Z,46.17
2022-10-11T05:56:24.799Z,41.97
2022-10-11T05:58:52.212Z,39.37
2022-10-11T06:01:21.019Z,35.40
2022-10-11T06:03:48.230Z,33.60
2022-10-11T06:06:15.276Z,30.25
2022-10-11T06:08:42.059Z,28.20
2022-10-11T06:11:13.756Z,27.45
2022-10-11T06:13:41.075Z,26.42
2022-10-11T06:16:08.786Z,25.80
2022-10-11T06:18:35.607Z,25.60
2022-10-11T06:21:02.509Z,24.75
2022-10-11T06:23:29.407Z,23.08
2022-10-11T06:26:14.347Z,21.35
2022-10-11T06:28:41.140Z,22.98
2022-10-11T06:31:08.228Z,22.00
2022-10-11T06:33:35.896Z,20.95
2022-10-11T06:36:13.944Z,21.33
2022-10-11T06:38:44.700Z,20.13
2022-10-11T06:41:24.582Z,19.40
2022-10-11T06:43:51.741Z,19.33
2022-10-11T06:46:19.964Z,18.23
2022-10-11T06:48:47.915Z,18.23
2022-10-11T06:51:17.276Z,17.98
2022-10-11T06:53:44.116Z,16.42
2022-10-11T06:56:12.858Z,16.88
2022-10-11T06:58:40.024Z,16.20
2022-10-11T07:01:13.500Z,16.50
2022-10-11T07:03:40.248Z,15.43
2022-10-11T07:06:11.156Z,16.33
2022-10-11T07:08:38.417Z,15.85
2022-10-11T07:11:14.271Z,14.90
2022-10-11T07:13:41.821Z,14.68
2022-10-11T07:16:11.725Z,14.63
2022-10-11T07:18:39.035Z,14.02
2022-10-11T07:21:07.424Z,13.85
2022-10-11T07:23:34.348Z,13.55
2022-10-11T07:26:01.204Z,13.18
2022-10-11T07:28:29.101Z,13.75
2022-10-11T07:30:56.272Z,12.75
2022-10-11T07:33:23.279Z,13.35
2022-10-11T07:35:50.233Z,12.48
2022-10-11T07:38:17.461Z,13.23
2022-10-11T07:40:45.576Z,13.23
2022-10-11T07:43:13.466Z,12.20
2022-10-11T07:45:41.434Z,12.15
2022-10-11T07:48:08.938Z,11.68
2022-10-11T07:50:36.292Z,11.40
2022-10-11T07:53:03.497Z,11.27
2022-10-11T07:55:31.670Z,11.57
2022-10-11T07:57:58.512Z,10.90
2022-10-11T08:00:25.264Z,11.00
2022-10-11T08:02:51.970Z,10.48
2022-10-11T08:05:18.733Z,10.15
2022-10-11T08:07:45.686Z,9.93
2022-10-11T08:10:12.435Z,10.25
2022-10-11T08:12:39.275Z,10.63
2022-10-11T08:15:06.590Z,10.57
2022-10-11T08:17:33.307Z,10.90
2022-10-11T08:20:00.073Z,10.10
2022-10-11T08:22:26.773Z,9.68
2022-10-11T08:24:53.496Z,10.05
2022-10-11T08:27:20.230Z,9.98
2022-10-11T08:29:47.019Z,9.57
2022-10-11T08:32:13.733Z,9.48
2022-10-11T08:34:40.516Z,9.30
2022-10-11T08:37:07.281Z,9.15
2022-10-11T08:39:34.752Z,8.90
2022-10-11T08:42:08.269Z,8.80
2022-10-11T08:45:10.585Z,8.30
2022-10-11T08:47:43.174Z,8.43
2022-10-11T08:50:21.183Z,7.97
2022-10-11T08:53:02.707Z,8.98
2022-10-11T08:55:39.969Z,9.00
2022-10-11T08:58:07.167Z,8.68
2022-10-11T09:00:38.128Z,9.05
2022-10-11T09:03:43.764Z,8.50
2022-10-11T09:06:37.822Z,8.18
2022-10-11T09:09:10.448Z,8.13
2022-10-11T09:12:03.267Z,8.13
2022-10-11T09:15:10.356Z,8.27
2022-10-11T09:17:50.966Z,7.80
2022-10-11T09:20:33.684Z,8.30
2022-10-11T09:23:31.648Z,7.60
2022-10-11T09:26:26.274Z,8.10
2022-10-11T09:29:12.795Z,7.63
2022-10-11T09:31:39.570Z,7.75
2022-10-11T09:34:12.752Z,7.60
2022-10-11T09:37:10.548Z,7.60
2022-10-11T09:39:42.117Z,7.50
2022-10-11T09:42:10.659Z,7.25
2022-10-11T09:44:38.358Z,7.07
2022-10-11T09:47:06.109Z,7.50
2022-10-11T09:49:37.840Z,7.90
2022-10-11T09:52:07.352Z,6.85
2022-10-11T09:54:55.841Z,7.40
2022-10-11T09:57:30.026Z,7.10
2022-10-11T10:00:01.451Z,7.35
2022-10-11T10:02:30.117Z,6.93
2022-10-11T10:05:14.179Z,7.22
2022-10-11T10:08:00.595Z,6.82
2022-10-11T10:11:00.047Z,6.80
2022-10-11T10:13:40.233Z,6.55
2022-10-11T10:16:11.654Z,6.50
2022-10-11T10:18:50.949Z,7.13
2022-10-11T10:21:30.193Z,6.43
2022-10-11T10:23:57.984Z,6.30
2022-10-11T10:26:26.405Z,7.20
2022-10-11T10:29:10.299Z,7.05
2022-10-11T10:32:13.761Z,6.53
2022-10-11T10:35:11.815Z,6.70
2022-10-11T10:37:52.312Z,6.20
2022-10-11T10:40:24.482Z,6.50
2022-10-11T10:42:51.415Z,6.53
2022-10-11T10:45:21.799Z,6.15
2022-10-11T10:48:07.203Z,6.40
2022-10-11T10:50:45.265Z,6.10
2022-10-11T10:53:11.934Z,6.68
2022-10-11T10:55:59.925Z,6.20
2022-10-11T10:58:51.701Z,6.15
2022-10-11T11:01:23.743Z,5.55
2022-10-11T11:04:14.252Z,5.97
2022-10-11T11:06:55.229Z,6.20
2022-10-11T11:09:30.500Z,6.10
2022-10-11T11:12:07.060Z,6.20
2022-10-11T11:15:03.323Z,5.93
2022-10-11T11:17:41.950Z,5.72
2022-10-11T11:20:44.026Z,6.05
2022-10-11T11:23:34.400Z,5.38
2022-10-11T11:26:10.051Z,5.88
2022-10-11T11:29:02.425Z,5.40
2022-10-11T11:31:54.147Z,5.93
2022-10-11T11:34:26.928Z,6.00
2022-10-11T11:37:07.148Z,5.78
2022-10-11T11:39:49.026Z,5.95
2022-10-11T11:42:17.419Z,5.60
2022-10-11T11:44:49.288Z,5.60
2022-10-11T11:47:19.087Z,5.10
2022-10-11T11:50:01.907Z,5.35
2022-10-11T11:52:40.915Z,5.63
2022-10-11T11:55:32.354Z,5.43
2022-10-11T11:58:06.802Z,5.35
2022-10-11T12:00:57.324Z,5.07
2022-10-11T12:06:29.028Z,4.70
2022-10-11T12:09:17.614Z,4.88
2022-10-11T12:11:54.682Z,5.05
2022-10-11T12:14:32.979Z,5.15
2022-10-11T12:17:07.083Z,5.28
2022-10-11T12:19:34.585Z,5.13
2022-10-11T12:22:36.306Z,4.72
2022-10-11T12:25:09.233Z,4.90
2022-10-11T12:27:44.216Z,5.43
2022-10-11T12:30:48.064Z,5.35
2022-10-11T12:33:21.417Z,5.28
2022-10-11T12:35:54.384Z,4.90
2022-10-11T12:38:40.119Z,5.05
2022-10-11T12:41:10.075Z,5.15
2022-10-11T12:43:59.434Z,4.60
2022-10-11T12:46:29.281Z,4.90
2022-10-11T12:49:03.981Z,4.50
2022-10-11T12:51:40.056Z,4.95
2022-10-11T12:54:29.090Z,4.55
2022-10-11T12:57:01.803Z,4.60
2022-10-11T12:59:31.619Z,4.70
2022-10-11T13:01:59.500Z,4.40
2022-10-11T13:04:29.194Z,4.93
2022-10-11T13:09:31.684Z,4.30
2022-10-11T13:12:08.849Z,4.53
2022-10-11T13:14:40.577Z,4.07
2022-10-11T13:17:16.880Z,4.13
2022-10-11T13:19:43.829Z,4.38
2022-10-11T13:22:19.684Z,4.15
2022-10-11T13:24:46.657Z,4.43
2022-10-11T13:27:21.091Z,4.40
2022-10-11T13:29:49.498Z,3.90
2022-10-11T13:32:26.268Z,4.05
2022-10-11T13:35:02.392Z,4.43
2022-10-11T13:37:30.117Z,4.00
2022-10-11T13:39:57.399Z,3.83
2022-10-11T13:42:33.596Z,3.95
2022-10-11T13:45:00.849Z,4.13
2022-10-11T13:47:29.587Z,3.92
2022-10-11T13:50:17.478Z,4.00
2022-10-11T13:53:02.497Z,3.65
2022-10-11T13:55:53.335Z,4.03
2022-10-11T13:58:40.539Z,4.00
2022-10-11T14:01:47.999Z,3.90
2022-10-11T14:04:15.545Z,3.78
2022-10-11T14:06:56.365Z,3.80
2022-10-11T14:09:27.812Z,3.55
2022-10-11T14:11:55.122Z,3.90
2022-10-11T14:14:51.239Z,3.42
2022-10-11T14:17:20.302Z,3.53
2022-10-11T14:19:48.693Z,4.03
2022-10-11T14:22:17.120Z,3.67
2022-10-11T14:24:47.345Z,3.72
2022-10-11T14:27:19.307Z,3.72
2022-10-11T14:30:00.557Z,3.70
2022-10-11T14:32:34.796Z,3.80
2022-10-11T14:35:01.499Z,3.10
2022-10-11T14:37:28.194Z,3.42
2022-10-11T14:39:54.887Z,3.40
2022-10-11T14:42:21.612Z,3.45
2022-10-11T14:44:48.331Z,3.30
2022-10-11T14:47:16.626Z,3.83
2022-10-11T14:49:44.710Z,3.30
2022-10-11T14:52:12.967Z,3.15
2022-10-11T14:54:54.940Z,3.13
2022-10-11T14:57:21.846Z,3.42
2022-10-11T14:59:48.580Z,3.20
2022-10-11T15:02:15.269Z,3.30
2022-10-11T15:04:42.179Z,3.58
2022-10-11T15:07:12.305Z,3.13
2022-10-11T15:09:39.329Z,3.28
2022-10-11T15:12:06.084Z,3.30
2022-10-11T15:14:32.863Z,2.92
2022-10-11T15:16:59.676Z,3.00
2022-10-11T15:19:26.393Z,3.10
2022-10-11T15:21:53.386Z,3.20
2022-10-11T15:24:20.126Z,3.00
2022-10-11T15:26:48.123Z,3.05
2022-10-11T15:29:17.630Z,3.17
2022-10-11T15:31:44.700Z,3.00
2022-10-11T15:34:11.530Z,2.70
2022-10-11T15:36:38.479Z,3.05
2022-10-11T15:39:24.669Z,2.67
2022-10-11T15:41:51.407Z,3.00
2022-10-11T15:44:18.247Z,2.92
2022-10-11T15:46:45.070Z,3.13
2022-10-11T15:51:40.304Z,2.70
2022-10-11T15:54:07.067Z,2.70
2022-10-11T15:56:34.042Z,2.78
2022-10-11T15:59:00.828Z,3.47
2022-10-11T16:01:27.754Z,3.53
2022-10-11T16:03:54.685Z,3.22
2022-10-11T16:06:21.372Z,3.28
2022-10-11T16:08:48.259Z,3.50
2022-10-11T16:11:15.124Z,3.20
2022-10-11T16:13:41.903Z,3.85
2022-10-11T16:16:10.109Z,3.00
2022-10-11T16:18:37.569Z,3.30
2022-10-11T16:21:10.304Z,8.02
2022-10-11T16:23:37.738Z,15.75
2022-10-11T16:26:07.600Z,13.73
2022-10-11T16:31:07.912Z,9.18
2022-10-11T16:33:34.631Z,7.68
2022-10-11T16:36:22.189Z,6.63
2022-10-11T16:38:48.909Z,6.03
2022-10-11T16:41:15.641Z,5.82
2022-10-11T16:43:42.404Z,5.65
2022-10-11T16:46:09.395Z,5.78
2022-10-11T16:48:36.271Z,5.30
2022-10-11T16:51:07.493Z,5.40
2022-10-11T16:53:34.935Z,15.77
2022-10-11T16:56:07.151Z,25.02
2022-10-11T16:58:35.455Z,21.52
2022-10-11T17:01:02.723Z,18.25
2022-10-11T17:03:29.539Z,15.23
2022-10-11T17:05:56.328Z,14.20
2022-10-11T17:08:23.023Z,12.32
2022-10-11T17:10:57.637Z,10.80
2022-10-11T17:13:24.892Z,10.55
2022-10-11T17:15:51.764Z,9.98
2022-10-11T17:18:18.650Z,9.60
2022-10-11T17:20:45.451Z,9.30
2022-10-11T17:23:12.548Z,9.63
2022-10-11T17:25:43.873Z,8.80
2022-10-11T17:28:11.001Z,8.88
2022-10-11T17:30:40.832Z,8.60
2022-10-11T17:33:07.924Z,8.68
2022-10-11T17:35:35.123Z,8.20
2022-10-11T17:38:05.921Z,9.00
2022-10-11T17:40:33.185Z,7.93
2022-10-11T17:42:59.899Z,7.95
2022-10-11T17:45:26.650Z,7.70
2022-10-11T17:47:53.378Z,7.40
2022-10-11T17:50:20.136Z,7.85
2022-10-11T17:52:47.205Z,7.43
2022-10-11T17:55:13.939Z,13.30
2022-10-11T17:57:40.662Z,9.57
2022-10-11T18:00:08.114Z,7.70
2022-10-11T18:02:34.953Z,7.57
2022-10-11T18:05:01.687Z,6.75
2022-10-11T18:07:28.445Z,5.90
2022-10-11T18:09:55.381Z,5.43
2022-10-11T18:12:22.209Z,5.82
2022-10-11T18:14:50.934Z,5.75
2022-10-11T18:17:18.428Z,5.67
2022-10-11T18:19:45.184Z,5.32
2022-10-11T18:22:12.017Z,5.10
2022-10-11T18:24:41.357Z,5.18
2022-10-11T18:27:08.155Z,5.47
2022-10-11T18:29:34.860Z,5.55
2022-10-11T18:32:01.559Z,5.35
2022-10-11T18:34:28.272Z,5.00
2022-10-11T18:36:56.192Z,5.80
2022-10-11T18:39:23.008Z,5.93
2022-10-11T18:41:49.788Z,5.55
2022-10-11T18:44:16.696Z,5.72
2022-10-11T18:46:44.172Z,5.65
2022-10-11T18:49:11.191Z,5.80
2022-10-11T18:51:40.267Z,5.60
2022-10-11T18:54:08.375Z,5.18
2022-10-11T18:56:36.980Z,5.95
2022-10-11T18:59:05.225Z,5.80
2022-10-11T19:01:34.807Z,5.80
2022-10-11T19:06:39.428Z,5.13
2022-10-11T19:09:21.285Z,5.60
2022-10-11T19:11:53.297Z,5.65
2022-10-11T19:14:22.553Z,5.30
2022-10-11T19:16:51.484Z,5.47
2022-10-11T19:19:21.219Z,5.78
2022-10-11T19:21:48.670Z,5.18
2022-10-11T19:24:20.347Z,5.10
2022-10-11T19:26:47.513Z,5.38
2022-10-11T19:29:18.939Z,5.53
2022-10-11T19:31:48.134Z,5.20
2022-10-11T19:34:15.113Z,5.10
2022-10-11T19:36:42.759Z,37.22
2022-10-11T19:39:14.211Z,45.35
2022-10-11T19:41:41.823Z,33.13
2022-10-11T19:44:08.697Z,26.48
2022-10-11T19:46:50.889Z,24.27
2022-10-11T19:49:21.508Z,20.88
2022-10-11T19:54:15.134Z,17.25
2022-10-11T19:56:42.596Z,16.02
2022-10-11T20:01:38.749Z,15.23
2022-10-11T20:04:08.168Z,13.73
2022-10-11T20:06:38.503Z,13.45
2022-10-11T20:11:53.924Z,12.45
2022-10-11T20:14:20.833Z,12.48
2022-10-11T20:16:49.821Z,11.85
2022-10-11T20:19:16.595Z,11.75
2022-10-11T20:24:10.897Z,11.65
2022-10-11T20:26:38.923Z,11.80
2022-10-11T20:29:05.980Z,10.95
2022-10-11T20:31:34.760Z,101.00
2022-10-11T20:34:04.019Z,132.13
2022-10-11T20:36:31.717Z,93.85
2022-10-11T20:38:59.559Z,79.90
2022-10-11T20:41:29.134Z,69.72
2022-10-11T20:43:57.186Z,61.97
2022-10-11T20:46:26.775Z,56.78
2022-10-11T20:49:01.849Z,53.38
2022-10-11T20:51:30.440Z,47.50
2022-10-11T20:53:57.250Z,46.70
2022-10-11T20:56:24.122Z,43.72
2022-10-11T20:58:54.860Z,41.50
2022-10-11T21:01:41.763Z,38.67
2022-10-11T21:04:14.589Z,39.75
2022-10-11T21:06:41.354Z,37.47
2022-10-11T21:09:09.388Z,35.92
2022-10-11T21:11:38.112Z,36.47
2022-10-11T21:14:05.904Z,34.83
2022-10-11T21:16:34.108Z,33.70
2022-10-11T21:19:01.892Z,32.08
2022-10-11T21:21:29.498Z,32.40
2022-10-11T21:24:00.778Z,31.25
2022-10-11T21:26:27.695Z,30.13
2022-10-11T21:28:54.690Z,28.73
2022-10-11T21:31:22.743Z,27.95
2022-10-11T21:33:49.876Z,57.47
2022-10-11T21:36:18.943Z,59.83
2022-10-11T21:38:46.425Z,49.80
2022-10-11T21:41:15.602Z,46.83
2022-10-11T21:43:42.460Z,42.50
2022-10-11T21:46:20.083Z,40.08
2022-10-11T21:48:47.385Z,37.42
2022-10-11T21:51:16.630Z,37.10
2022-10-11T21:53:43.433Z,34.30
2022-10-11T21:56:10.239Z,34.20
2022-10-11T21:58:37.218Z,34.13
2022-10-11T22:01:04.094Z,33.28
2022-10-11T22:03:30.888Z,32.55
2022-10-11T22:05:57.609Z,30.88
2022-10-11T22:08:24.420Z,30.98
2022-10-11T22:10:56.460Z,28.88
2022-10-11T22:13:24.101Z,28.38
2022-10-11T22:15:50.889Z,26.33
2022-10-11T22:18:18.110Z,26.98
2022-10-11T22:20:45.087Z,27.50
2022-10-11T22:23:11.795Z,26.02
2022-10-11T22:25:39.439Z,24.98
2022-10-11T22:28:06.888Z,33.72
2022-10-11T22:30:33.988Z,76.72
2022-10-11T22:33:00.775Z,57.13
2022-10-11T22:35:27.684Z,52.60
2022-10-11T22:37:54.385Z,50.78
2022-10-11T22:40:21.348Z,46.42
2022-10-11T22:42:48.111Z,44.33
2022-10-11T22:45:14.920Z,40.13
2022-10-11T22:47:41.682Z,37.38
2022-10-11T22:50:08.882Z,36.45
2022-10-11T22:52:35.620Z,35.78
2022-10-11T22:55:02.406Z,33.83
2022-10-11T22:57:29.606Z,31.65
2022-10-11T22:59:56.512Z,32.60
2022-10-11T23:02:23.191Z,31.23
2022-10-11T23:04:49.913Z,30.10
2022-10-11T23:07:16.621Z,29.98
2022-10-11T23:09:43.358Z,29.17
2022-10-11T23:12:10.045Z,30.08
2022-10-11T23:14:36.763Z,28.20
2022-10-11T23:17:03.452Z,26.77
2022-10-11T23:19:30.233Z,26.60
2022-10-11T23:21:56.983Z,25.55
2022-10-11T23:24:23.794Z,25.17
2022-10-11T23:26:50.501Z,25.55
2022-10-11T23:29:17.245Z,25.52
2022-10-11T23:31:46.185Z,24.75
2022-10-11T23:34:13.780Z,24.58
2022-10-11T23:36:40.570Z,24.63
2022-10-11T23:39:07.391Z,24.02
2022-10-11T23:41:34.107Z,22.83
2022-10-11T23:44:00.814Z,22.90
2022-10-11T23:46:27.574Z,21.98
2022-10-11T23:48:54.393Z,21.30
2022-10-11T23:51:21.189Z,21.73
2022-10-11T23:53:48.005Z,20.98
2022-10-11T23:56:14.767Z,20.50
2022-10-11T23:58:41.556Z,20.48
